createdAt,value
2022-10-13T00:01:13.128Z,10.18
2022-10-13T00:03:40.678Z,10.11
2022-10-13T00:06:09.401Z,9.98
2022-10-13T00:08:38.049Z,9.94
2022-10-13T00:11:14.243Z,10.02
2022-10-13T00:13:41.668Z,9.95
2022-10-13T00:16:09.046Z,9.88
2022-10-13T00:18:35.760Z,9.81
2022-10-13T00:21:07.941Z,9.70
2022-10-13T00:23:35.231Z,9.60
2022-10-13T00:26:04.813Z,9.68
2022-10-13T00:28:31.790Z,9.51
2022-10-13T00:30:58.947Z,9.47
2022-10-13T00:33:25.854Z,9.49
2022-10-13T00:35:52.613Z,9.48
2022-10-13T00:38:21.482Z,9.44
2022-10-13T00:40:54.513Z,9.35
2022-10-13T00:43:27.419Z,9.50
2022-10-13T00:45:54.380Z,9.27
2022-10-13T00:48:26.083Z,9.44
2022-10-13T00:50:53.813Z,9.23
2022-10-13T00:53:23.491Z,9.42
2022-10-13T00:55:52.300Z,9.45
2022-10-13T00:58:23.685Z,9.41
2022-10-13T01:00:52.841Z,9.38
2022-10-13T01:03:21.185Z,9.43
2022-10-13T01:05:50.004Z,9.28
2022-10-13T01:08:18.040Z,9.35
2022-10-13T01:11:13.399Z,9.51
2022-10-13T01:13:55.049Z,9.47
2022-10-13T01:16:40.895Z,9.50
2022-10-13T01:19:28.909Z,9.52
2022-10-13T01:22:24.705Z,9.38
2022-10-13T01:25:07.718Z,9.38
2022-10-13T01:27:53.396Z,9.43
2022-10-13T01:30:22.513Z,9.47
2022-10-13T01:33:01.463Z,9.31
2022-10-13T01:35:47.891Z,9.22
2022-10-13T01:38:35.008Z,9.13
2022-10-13T01:41:26.440Z,9.20
2022-10-13T01:44:16.112Z,9.13
2022-10-13T01:46:51.588Z,9.41
2022-10-13T01:49:20.985Z,9.55
2022-10-13T01:51:48.832Z,9.62
2022-10-13T01:54:15.769Z,9.60
2022-10-13T01:56:42.497Z,9.79
2022-10-13T01:59:14.385Z,9.77
2022-10-13T02:01:48.445Z,9.86
2022-10-13T02:04:37.184Z,9.64
2022-10-13T02:07:22.964Z,9.75
2022-10-13T02:10:20.398Z,9.82
2022-10-13T02:12:51.065Z,9.90
2022-10-13T02:15:23.497Z,9.87
2022-10-13T02:17:52.154Z,9.87
2022-10-13T02:20:21.095Z,10.06
2022-10-13T02:22:54.130Z,9.90
2022-10-13T02:25:20.903Z,10.11
2022-10-13T02:27:50.008Z,10.06
2022-10-13T02:30:26.171Z,10.12
2022-10-13T02:32:52.904Z,10.03
2022-10-13T02:35:19.565Z,10.05
2022-10-13T02:37:46.344Z,9.94
2022-10-13T02:40:13.702Z,9.99
2022-10-13T02:42:40.460Z,10.01
2022-10-13T02:45:08.186Z,9.90
2022-10-13T02:47:34.925Z,9.86
2022-10-13T02:50:04.824Z,9.88
2022-10-13T02:52:31.672Z,9.98
2022-10-13T02:54:58.335Z,10.04
2022-10-13T02:57:25.051Z,10.13
2022-10-13T02:59:52.447Z,10.26
2022-10-13T03:02:19.837Z,10.25
2022-10-13T03:04:47.169Z,10.25
2022-10-13T03:07:13.895Z,10.42
2022-10-13T03:09:40.710Z,10.45
2022-10-13T03:12:07.608Z,10.35
2022-10-13T03:14:35.485Z,10.33
2022-10-13T03:17:02.355Z,10.40
2022-10-13T03:19:29.001Z,10.35
2022-10-13T03:21:55.708Z,10.57
2022-10-13T03:24:22.523Z,10.61
2022-10-13T03:26:49.250Z,10.64
2022-10-13T03:29:20.051Z,10.72
2022-10-13T03:31:46.708Z,10.77
2022-10-13T03:34:16.255Z,10.69
2022-10-13T03:36:43.450Z,10.83
2022-10-13T03:39:10.069Z,10.75
2022-10-13T03:41:36.798Z,10.78
2022-10-13T03:44:03.529Z,10.66
2022-10-13T03:46:30.720Z,10.97
2022-10-13T03:48:58.682Z,10.92
2022-10-13T03:51:25.532Z,10.97
2022-10-13T03:53:52.685Z,11.06
2022-10-13T03:56:25.128Z,11.16
2022-10-13T03:58:55.792Z,11.19
2022-10-13T04:01:25.966Z,11.08
2022-10-13T04:03:54.633Z,10.97
2022-10-13T04:06:22.285Z,10.76
2022-10-13T04:08:49.685Z,10.73
2022-10-13T04:11:16.908Z,10.73
2022-10-13T04:13:44.865Z,10.86
2022-10-13T04:16:31.790Z,10.92
2022-10-13T04:19:01.860Z,10.88
2022-10-13T04:21:30.399Z,10.93
2022-10-13T04:23:59.221Z,10.86
2022-10-13T04:26:28.118Z,10.61
2022-10-13T04:28:55.993Z,10.67
2022-10-13T04:31:23.703Z,10.77
2022-10-13T04:33:51.159Z,10.86
2022-10-13T04:36:18.215Z,10.95
2022-10-13T04:38:46.582Z,10.94
2022-10-13T04:41:16.113Z,11.07
2022-10-13T04:43:43.330Z,11.13
2022-10-13T04:46:13.922Z,11.12
2022-10-13T04:48:40.652Z,11.05
2022-10-13T04:51:09.892Z,10.87
2022-10-13T04:54:01.059Z,10.99
2022-10-13T04:56:28.612Z,11.01
2022-10-13T04:58:59.973Z,10.98
2022-10-13T05:01:27.096Z,11.01
2022-10-13T05:04:00.402Z,10.96
2022-10-13T05:06:30.267Z,10.91
2022-10-13T05:08:57.340Z,10.83
2022-10-13T05:11:26.535Z,10.94
2022-10-13T05:13:53.480Z,11.24
2022-10-13T05:16:21.222Z,11.52
2022-10-13T05:18:54.711Z,11.74
2022-10-13T05:21:27.349Z,11.91
2022-10-13T05:23:55.852Z,11.64
2022-10-13T05:26:28.820Z,11.43
2022-10-13T05:28:56.952Z,11.56
2022-10-13T05:31:26.730Z,11.56
2022-10-13T05:33:53.739Z,11.59
2022-10-13T05:36:31.354Z,11.54
2022-10-13T05:39:00.506Z,11.58
2022-10-13T05:41:28.897Z,11.48
2022-10-13T05:44:02.002Z,11.57
2022-10-13T05:46:28.905Z,11.49
2022-10-13T05:48:55.756Z,11.23
2022-10-13T05:51:38.102Z,11.07
2022-10-13T05:54:08.675Z,10.92
2022-10-13T05:56:44.633Z,10.91
2022-10-13T05:59:15.658Z,10.98
2022-10-13T06:01:47.430Z,11.16
2022-10-13T06:04:20.368Z,11.39
2022-10-13T06:06:49.055Z,11.40
2022-10-13T06:09:16.208Z,11.29
2022-10-13T06:11:43.443Z,11.40
2022-10-13T06:14:10.180Z,11.55
2022-10-13T06:16:37.036Z,11.56
2022-10-13T06:19:05.525Z,11.58
2022-10-13T06:21:35.133Z,11.60
2022-10-13T06:24:02.234Z,11.72
2022-10-13T06:26:28.933Z,11.79
2022-10-13T06:28:59.502Z,11.90
2022-10-13T06:31:27.536Z,11.67
2022-10-13T06:33:54.712Z,11.46
2022-10-13T06:36:21.635Z,11.43
2022-10-13T06:38:48.271Z,11.52
2022-10-13T06:41:17.160Z,11.75
2022-10-13T06:43:44.132Z,11.62
2022-10-13T06:46:11.865Z,11.53
2022-10-13T06:48:38.686Z,11.41
2022-10-13T06:51:07.693Z,11.39
2022-10-13T06:53:34.626Z,11.50
2022-10-13T06:56:04.216Z,11.48
2022-10-13T06:58:31.032Z,11.41
2022-10-13T07:01:23.030Z,11.43
2022-10-13T07:03:50.715Z,11.53
2022-10-13T07:06:20.868Z,11.77
2022-10-13T07:08:49.439Z,11.90
2022-10-13T07:11:17.244Z,11.93
2022-10-13T07:13:48.395Z,12.15
2022-10-13T07:16:15.606Z,12.32
2022-10-13T07:18:42.439Z,12.35
2022-10-13T07:21:09.469Z,12.72
2022-10-13T07:23:36.154Z,12.90
2022-10-13T07:26:07.703Z,12.71
2022-10-13T07:28:34.751Z,12.58
2022-10-13T07:31:08.107Z,12.63
2022-10-13T07:33:37.366Z,12.88
2022-10-13T07:36:04.786Z,12.89
2022-10-13T07:38:31.498Z,12.94
2022-10-13T07:41:05.680Z,13.11
2022-10-13T07:43:32.854Z,13.29
2022-10-13T07:46:07.638Z,13.54
2022-10-13T07:48:35.445Z,13.82
2022-10-13T07:51:12.907Z,14.29
2022-10-13T07:53:41.771Z,14.41
2022-10-13T07:56:11.710Z,14.41
2022-10-13T07:58:40.140Z,14.45
2022-10-13T08:01:07.725Z,14.44
2022-10-13T08:03:40.225Z,14.21
2022-10-13T08:06:09.307Z,14.06
2022-10-13T08:08:36.325Z,14.12
2022-10-13T08:11:05.090Z,14.27
2022-10-13T08:13:31.872Z,14.76
2022-10-13T08:16:05.887Z,15.16
2022-10-13T08:18:32.571Z,15.50
2022-10-13T08:23:50.680Z,16.02
2022-10-13T08:26:23.807Z,15.94
2022-10-13T08:29:09.468Z,16.00
2022-10-13T08:31:38.809Z,15.97
2022-10-13T08:34:05.778Z,15.97
2022-10-13T08:36:32.512Z,16.02
2022-10-13T08:38:59.210Z,16.16
2022-10-13T08:41:29.965Z,15.89
2022-10-13T08:47:12.238Z,15.00
2022-10-13T08:49:41.195Z,14.88
2022-10-13T08:52:18.552Z,14.91
2022-10-13T08:54:45.796Z,14.46
2022-10-13T08:57:12.547Z,14.76
2022-10-13T08:59:39.369Z,14.64
2022-10-13T09:02:31.425Z,14.72
2022-10-13T09:05:03.311Z,14.99
2022-10-13T09:07:35.085Z,15.15
2022-10-13T09:10:01.867Z,15.28
2022-10-13T09:12:28.632Z,14.68
2022-10-13T09:15:01.845Z,15.17
2022-10-13T09:17:31.124Z,15.07
2022-10-13T09:20:07.155Z,15.29
2022-10-13T09:22:39.295Z,15.06
2022-10-13T09:25:10.890Z,14.91
2022-10-13T09:28:01.695Z,14.77
2022-10-13T09:30:39.063Z,14.71
2022-10-13T09:33:09.017Z,14.65
2022-10-13T09:35:38.152Z,14.58
2022-10-13T09:38:13.251Z,14.59
2022-10-13T09:40:41.000Z,14.67
2022-10-13T09:43:28.995Z,14.74
2022-10-13T09:45:56.953Z,14.75
2022-10-13T09:48:30.706Z,14.73
2022-10-13T09:50:57.722Z,14.70
2022-10-13T09:53:28.815Z,14.76
2022-10-13T09:56:18.310Z,14.76
2022-10-13T09:58:54.191Z,14.79
2022-10-13T10:01:27.903Z,14.84
2022-10-13T10:03:55.426Z,14.80
2022-10-13T10:06:25.424Z,14.56
2022-10-13T10:09:22.349Z,14.66
2022-10-13T10:11:53.432Z,14.77
2022-10-13T10:14:26.407Z,15.05
2022-10-13T10:17:23.444Z,15.21
2022-10-13T10:20:27.646Z,15.39
2022-10-13T10:23:13.544Z,15.48
2022-10-13T10:25:45.599Z,15.41
2022-10-13T10:28:15.017Z,15.62
2022-10-13T10:30:51.595Z,15.73
2022-10-13T10:33:26.263Z,15.85
2022-10-13T10:36:02.564Z,15.88
2022-10-13T10:38:46.574Z,15.83
2022-10-13T10:41:16.084Z,16.04
2022-10-13T10:43:43.766Z,16.25
2022-10-13T10:46:23.483Z,15.94
2022-10-13T10:48:55.176Z,15.84
2022-10-13T10:51:27.805Z,15.69
2022-10-13T10:54:23.630Z,15.58
2022-10-13T10:57:05.851Z,15.56
2022-10-13T11:00:15.688Z,15.51
2022-10-13T11:03:03.965Z,15.75
2022-10-13T11:05:59.877Z,16.06
2022-10-13T11:08:47.827Z,15.97
2022-10-13T11:11:26.704Z,16.08
2022-10-13T11:14:07.023Z,16.17
2022-10-13T11:16:34.934Z,16.57
2022-10-13T11:19:06.050Z,17.01
2022-10-13T11:21:54.845Z,17.44
2022-10-13T11:24:52.252Z,17.93
2022-10-13T11:27:18.915Z,18.27
2022-10-13T11:29:57.827Z,18.09
2022-10-13T11:32:41.113Z,18.34
2022-10-13T11:35:08.262Z,18.62
2022-10-13T11:38:06.105Z,18.71
2022-10-13T11:41:06.169Z,18.27
2022-10-13T11:43:47.636Z,17.49
2022-10-13T11:46:20.107Z,17.42
2022-10-13T11:49:20.624Z,17.88
2022-10-13T11:51:55.826Z,18.54
2022-10-13T11:54:37.198Z,18.98
2022-10-13T11:57:18.612Z,19.65
2022-10-13T11:59:47.918Z,20.27
2022-10-13T12:02:18.877Z,20.43
2022-10-13T12:05:05.140Z,20.52
2022-10-13T12:07:41.530Z,20.82
2022-10-13T12:10:24.329Z,19.79
2022-10-13T12:12:51.582Z,19.24
2022-10-13T12:15:32.134Z,19.22
2022-10-13T12:17:59.008Z,18.65
2022-10-13T12:20:32.447Z,18.21
2022-10-13T12:22:59.241Z,18.22
2022-10-13T12:25:30.112Z,18.11
2022-10-13T12:28:01.113Z,18.16
2022-10-13T12:30:36.926Z,18.25
2022-10-13T12:33:18.003Z,18.48
2022-10-13T12:35:44.779Z,18.70
2022-10-13T12:38:19.388Z,19.00
2022-10-13T12:40:49.012Z,19.01
2022-10-13T12:43:19.670Z,18.98
2022-10-13T12:45:48.888Z,18.65
2022-10-13T12:48:49.944Z,18.28
2022-10-13T12:51:28.000Z,18.03
2022-10-13T12:53:55.094Z,17.83
2022-10-13T12:56:30.751Z,17.70
2022-10-13T12:58:58.187Z,17.55
2022-10-13T13:01:34.132Z,17.45
2022-10-13T13:04:21.050Z,17.43
2022-10-13T13:07:02.675Z,17.39
2022-10-13T13:09:34.366Z,17.43
2022-10-13T13:12:23.037Z,17.58
2022-10-13T13:14:54.718Z,17.69
2022-10-13T13:17:52.997Z,17.74
2022-10-13T13:20:29.798Z,17.88
2022-10-13T13:22:57.359Z,17.77
2022-10-13T13:25:24.828Z,17.71
2022-10-13T13:27:52.339Z,17.84
2022-10-13T13:30:23.000Z,18.00
2022-10-13T13:32:50.458Z,17.96
2022-10-13T13:35:17.457Z,17.83
2022-10-13T13:37:50.497Z,17.77
2022-10-13T13:40:23.149Z,18.05
2022-10-13T13:42:50.283Z,18.23
2022-10-13T13:45:20.778Z,18.04
2022-10-13T13:47:47.958Z,17.80
2022-10-13T13:50:22.887Z,17.68
2022-10-13T13:52:59.168Z,17.56
2022-10-13T13:55:26.920Z,17.78
2022-10-13T13:57:53.663Z,17.64
2022-10-13T14:00:20.781Z,17.40
2022-10-13T14:02:53.209Z,17.47
2022-10-13T14:05:20.019Z,17.38
2022-10-13T14:07:46.748Z,17.39
2022-10-13T14:10:13.779Z,17.39
2022-10-13T14:12:40.586Z,17.33
2022-10-13T14:15:08.069Z,17.38
2022-10-13T14:17:34.830Z,17.39
2022-10-13T14:20:01.582Z,17.62
2022-10-13T14:22:28.364Z,17.54
2022-10-13T14:24:55.054Z,17.82
2022-10-13T14:27:21.823Z,17.79
2022-10-13T14:29:48.549Z,17.68
2022-10-13T14:32:15.791Z,17.85
2022-10-13T14:34:42.811Z,18.11
2022-10-13T14:37:09.878Z,18.11
2022-10-13T14:39:39.104Z,18.01
2022-10-13T14:42:06.785Z,18.00
2022-10-13T14:44:33.799Z,17.85
2022-10-13T14:47:00.552Z,17.78
2022-10-13T14:49:27.336Z,17.88
2022-10-13T14:51:54.289Z,17.94
2022-10-13T14:54:21.029Z,17.95
2022-10-13T14:56:47.923Z,17.74
2022-10-13T14:59:14.762Z,17.67
2022-10-13T15:01:42.912Z,17.70
2022-10-13T15:04:10.219Z,17.69
2022-10-13T15:06:39.292Z,17.41
2022-10-13T15:11:41.198Z,17.31
2022-10-13T15:14:09.700Z,17.22
2022-10-13T15:16:37.796Z,17.08
2022-10-13T15:19:04.914Z,16.97
2022-10-13T15:21:31.722Z,16.91
2022-10-13T15:23:58.430Z,16.70
2022-10-13T15:26:25.136Z,16.81
2022-10-13T15:28:53.500Z,16.99
2022-10-13T15:31:22.406Z,16.92
2022-10-13T15:33:51.826Z,17.01
2022-10-13T15:36:22.165Z,17.02
2022-10-13T15:38:48.959Z,16.98
2022-10-13T15:41:16.167Z,16.85
2022-10-13T15:43:43.298Z,16.76
2022-10-13T15:46:21.136Z,16.75
2022-10-13T15:48:49.546Z,16.68
2022-10-13T15:51:19.520Z,16.61
2022-10-13T15:53:49.337Z,16.55
2022-10-13T15:56:16.723Z,16.47
2022-10-13T15:58:43.735Z,16.31
2022-10-13T16:01:12.406Z,16.36
2022-10-13T16:03:39.658Z,16.36
2022-10-13T16:06:08.614Z,16.21
2022-10-13T16:08:40.165Z,16.26
2022-10-13T16:11:11.959Z,16.26
2022-10-13T16:13:39.430Z,16.11
2022-10-13T16:16:06.529Z,16.21
2022-10-13T16:18:36.132Z,16.17
2022-10-13T16:21:19.022Z,16.13
2022-10-13T16:23:47.333Z,16.23
2022-10-13T16:26:15.322Z,16.23
2022-10-13T16:28:42.073Z,16.26
2022-10-13T16:31:14.544Z,16.20
2022-10-13T16:33:45.290Z,16.25
2022-10-13T16:36:15.460Z,16.30
2022-10-13T16:38:43.582Z,16.16
2022-10-13T16:41:13.917Z,16.25
2022-10-13T16:43:42.192Z,16.20
2022-10-13T16:46:13.254Z,16.17
2022-10-13T16:48:41.279Z,16.17
2022-10-13T16:51:10.568Z,16.15
2022-10-13T16:53:38.651Z,16.08
2022-10-13T16:56:06.734Z,15.94
2022-10-13T16:58:34.133Z,15.79
2022-10-13T17:01:11.120Z,15.73
2022-10-13T17:03:39.336Z,15.81
2022-10-13T17:06:06.934Z,15.84
2022-10-13T17:08:34.001Z,15.80
2022-10-13T17:11:03.440Z,15.77
2022-10-13T17:13:31.549Z,15.68
2022-10-13T17:15:58.938Z,15.53
2022-10-13T17:18:27.660Z,15.61
2022-10-13T17:20:57.177Z,15.56
2022-10-13T17:23:24.647Z,15.64
2022-10-13T17:25:52.400Z,15.55
2022-10-13T17:28:19.901Z,15.53
2022-10-13T17:31:00.394Z,15.43
2022-10-13T17:33:28.469Z,15.42
2022-10-13T17:36:06.534Z,15.28
2022-10-13T17:38:34.354Z,15.48
2022-10-13T17:41:03.378Z,15.55
2022-10-13T17:43:30.948Z,15.59
2022-10-13T17:46:35.031Z,15.55
2022-10-13T17:49:00.655Z,15.51
2022-10-13T17:51:27.947Z,15.48
2022-10-13T17:53:55.024Z,15.48
2022-10-13T17:56:24.122Z,15.36
2022-10-13T17:58:51.206Z,15.35
2022-10-13T18:01:24.260Z,15.35
2022-10-13T18:03:57.397Z,15.34
2022-10-13T18:06:43.862Z,15.30
2022-10-13T18:09:24.151Z,15.25
2022-10-13T18:11:53.805Z,15.22
2022-10-13T18:14:22.627Z,15.17
2022-10-13T18:16:50.918Z,15.16
2022-10-13T18:19:18.068Z,15.07
2022-10-13T18:21:44.871Z,15.18
2022-10-13T18:24:12.064Z,15.16
2022-10-13T18:26:39.560Z,15.12
2022-10-13T18:29:07.983Z,15.11
2022-10-13T18:31:36.747Z,15.05
2022-10-13T18:34:06.559Z,15.02
2022-10-13T18:36:34.802Z,14.96
2022-10-13T18:39:07.805Z,14.86
2022-10-13T18:41:35.860Z,14.45
2022-10-13T18:44:03.946Z,14.77
2022-10-13T18:46:32.068Z,14.59
2022-10-13T18:48:58.878Z,14.62
2022-10-13T18:51:26.178Z,14.59
2022-10-13T18:53:52.978Z,14.73
2022-10-13T18:56:26.314Z,14.61
2022-10-13T18:58:59.474Z,14.80
2022-10-13T19:01:28.885Z,14.86
2022-10-13T19:03:56.208Z,14.75
2022-10-13T19:06:27.038Z,14.84
2022-10-13T19:09:02.542Z,14.70
2022-10-13T19:11:30.524Z,14.81
2022-10-13T19:13:58.615Z,14.82
2022-10-13T19:16:27.559Z,14.78
2022-10-13T19:18:54.828Z,14.64
2022-10-13T19:21:22.945Z,14.71
2022-10-13T19:23:50.230Z,14.47
2022-10-13T19:26:24.475Z,14.48
2022-10-13T19:28:56.081Z,14.56
2022-10-13T19:31:24.786Z,14.60
2022-10-13T19:33:54.691Z,14.59
2022-10-13T19:36:25.854Z,14.61
2022-10-13T19:38:54.672Z,14.61
2022-10-13T19:41:21.923Z,14.61
2022-10-13T19:43:49.385Z,14.43
2022-10-13T19:46:17.010Z,14.48
2022-10-13T19:48:44.798Z,14.45
2022-10-13T19:51:11.981Z,14.40
2022-10-13T19:53:39.900Z,14.43
2022-10-13T19:56:07.589Z,14.30
2022-10-13T19:58:34.674Z,14.41
2022-10-13T20:01:04.580Z,14.39
2022-10-13T20:03:31.856Z,14.37
2022-10-13T20:05:59.095Z,14.28
2022-10-13T20:08:26.018Z,14.05
2022-10-13T20:10:52.782Z,14.16
2022-10-13T20:13:19.511Z,13.96
2022-10-13T20:15:47.862Z,14.01
2022-10-13T20:18:14.684Z,14.01
2022-10-13T20:20:42.006Z,13.99
2022-10-13T20:23:09.106Z,13.93
2022-10-13T20:25:38.921Z,13.98
2022-10-13T20:28:06.375Z,13.94
2022-10-13T20:30:33.396Z,14.07
2022-10-13T20:33:00.513Z,14.12
2022-10-13T20:35:27.751Z,14.09
2022-10-13T20:37:54.858Z,14.18
2022-10-13T20:40:21.983Z,14.24
2022-10-13T20:42:50.883Z,14.11
2022-10-13T20:45:18.138Z,14.24
2022-10-13T20:47:44.984Z,14.23
2022-10-13T20:50:11.678Z,14.05
2022-10-13T20:52:38.654Z,14.17
2022-10-13T20:55:05.598Z,14.05
2022-10-13T20:57:35.204Z,14.01
2022-10-13T21:00:02.205Z,14.09
2022-10-13T21:02:28.862Z,14.07
2022-10-13T21:04:55.563Z,13.98
2022-10-13T21:07:22.692Z,14.03
2022-10-13T21:09:53.608Z,14.01
2022-10-13T21:12:21.535Z,13.95
2022-10-13T21:14:48.431Z,13.95
2022-10-13T21:17:15.290Z,14.01
2022-10-13T21:19:41.950Z,13.87
2022-10-13T21:22:08.649Z,13.93
2022-10-13T21:24:35.352Z,13.96
2022-10-13T21:27:02.064Z,14.09
2022-10-13T21:29:29.149Z,13.94
2022-10-13T21:31:55.972Z,13.96
2022-10-13T21:34:22.742Z,13.99
2022-10-13T21:36:49.527Z,14.14
2022-10-13T21:39:16.274Z,14.23
2022-10-13T21:41:43.035Z,14.28
2022-10-13T21:44:14.826Z,14.36
2022-10-13T21:46:41.634Z,14.11
2022-10-13T21:49:09.318Z,14.25
2022-10-13T21:51:39.356Z,14.38
2022-10-13T21:54:09.355Z,14.39
2022-10-13T21:56:36.947Z,14.35
2022-10-13T21:59:04.471Z,14.19
2022-10-13T22:01:31.168Z,14.32
2022-10-13T22:04:00.764Z,14.49
2022-10-13T22:06:28.875Z,14.48
2022-10-13T22:08:57.336Z,14.51
2022-10-13T22:11:27.150Z,14.43
2022-10-13T22:13:55.698Z,14.19
2022-10-13T22:16:24.858Z,14.13
2022-10-13T22:18:53.834Z,14.20
2022-10-13T22:21:23.590Z,14.23
2022-10-13T22:23:50.350Z,14.30
2022-10-13T22:26:18.435Z,14.30
2022-10-13T22:28:48.075Z,14.08
2022-10-13T22:31:15.134Z,14.10
2022-10-13T22:33:43.570Z,14.08
2022-10-13T22:36:18.218Z,14.17
2022-10-13T22:38:46.663Z,14.19
2022-10-13T22:41:15.010Z,14.27
2022-10-13T22:43:44.065Z,14.32
2022-10-13T22:46:12.944Z,14.17
2022-10-13T22:48:41.072Z,14.04
2022-10-13T22:51:14.009Z,14.21
2022-10-13T22:53:40.692Z,14.06
2022-10-13T22:56:09.398Z,14.18
2022-10-13T22:58:37.093Z,14.26
2022-10-13T23:01:13.329Z,14.37
2022-10-13T23:03:40.758Z,14.46
2022-10-13T23:06:12.301Z,14.47
2022-10-13T23:08:39.073Z,14.58
2022-10-13T23:11:05.760Z,14.46
2022-10-13T23:13:32.469Z,14.60
2022-10-13T23:16:07.532Z,14.62
2022-10-13T23:18:38.293Z,14.63
2022-10-13T23:21:10.570Z,14.58
2022-10-13T23:23:37.238Z,14.63
2022-10-13T23:26:08.924Z,14.50
2022-10-13T23:28:36.255Z,14.66
2022-10-13T23:31:05.075Z,14.66
2022-10-13T23:33:32.133Z,14.67
2022-10-13T23:36:00.538Z,14.64
2022-10-13T23:38:29.284Z,14.62
2022-10-13T23:41:08.698Z,14.62
2022-10-13T23:43:36.531Z,14.68
2022-10-13T23:46:03.857Z,14.66
2022-10-13T23:48:30.939Z,14.52
2022-10-13T23:50:58.058Z,14.51
2022-10-13T23:53:24.912Z,14.56
2022-10-13T23:55:51.587Z,14.62
2022-10-13T23:58:25.207Z,14.52
